Toronto, Canada
Current Conditions -  °F | °C
As of 9:00 AM on Sunday 23 Nov 2014 (Local Time) from CYYZ Reporting Station
Broken Clouds Broken Clouds  
Wind Chill:   Ceiling: 5100
Heat Index:   Visibility: 10mi
Dew Point:   Wind: 5mph
Humidity: 87%   Direction: 130°SE
Pressure: 29.99"   Gusts: NA
Location:  43.65°N, 79.39°W
Report Text: CYYZ 231400Z 13004KT 10SM SCT029 BKN051 06/04 A2999 RMK SC3SC4 SLP161
Loading
Personal Weather Stations






























Interactive Weather Map New forecast layout! Learn more

10-Day Weather Forecast

Advertisements
Track Severe Weather on mobile